createdAt,value
2023-05-06T00:00:42.853Z,22.19
2023-05-06T00:03:10.952Z,21.68
2023-05-06T00:05:38.921Z,21.76
2023-05-06T00:08:06.836Z,22.05
2023-05-06T00:10:34.803Z,22.20
2023-05-06T00:13:02.665Z,21.40
2023-05-06T00:15:32.303Z,21.53
2023-05-06T00:18:01.242Z,21.52
2023-05-06T00:20:29.373Z,21.74
2023-05-06T00:22:57.188Z,21.63
2023-05-06T00:25:25.317Z,21.95
2023-05-06T00:27:54.258Z,22.00
2023-05-06T00:30:22.079Z,21.60
2023-05-06T00:32:51.441Z,21.49
2023-05-06T00:35:19.650Z,21.67
2023-05-06T00:37:48.032Z,21.95
2023-05-06T00:40:16.001Z,21.42
2023-05-06T00:42:43.783Z,21.95
2023-05-06T00:45:12.505Z,21.66
2023-05-06T00:47:41.177Z,21.26
2023-05-06T00:50:11.051Z,21.79
2023-05-06T00:52:39.430Z,22.09
2023-05-06T00:55:08.162Z,21.98
2023-05-06T00:57:36.108Z,21.77
2023-05-06T01:00:04.218Z,21.87
2023-05-06T01:02:45.852Z,22.01
2023-05-06T01:05:17.274Z,22.09
2023-05-06T01:07:52.513Z,21.06
2023-05-06T01:10:28.922Z,21.87
2023-05-06T01:13:06.379Z,21.74
2023-05-06T01:15:37.307Z,21.96
2023-05-06T01:18:09.929Z,21.93
2023-05-06T01:20:40.198Z,22.09
2023-05-06T01:23:12.598Z,21.94
2023-05-06T01:25:40.787Z,21.79
2023-05-06T01:28:10.527Z,21.77
2023-05-06T01:30:47.373Z,21.31
2023-05-06T01:33:23.938Z,21.00
2023-05-06T01:35:59.449Z,20.67
2023-05-06T01:38:35.916Z,21.07
2023-05-06T01:41:05.278Z,20.93
2023-05-06T01:43:38.816Z,20.62
2023-05-06T01:46:11.387Z,20.98
2023-05-06T01:48:40.721Z,20.53
2023-05-06T01:51:08.624Z,20.40
2023-05-06T01:53:38.062Z,20.90
2023-05-06T01:56:06.711Z,20.59
2023-05-06T01:58:34.653Z,20.59
2023-05-06T02:01:02.512Z,20.61
2023-05-06T02:03:30.748Z,20.73
2023-05-06T02:05:58.971Z,20.61
2023-05-06T02:08:28.336Z,20.47
2023-05-06T02:10:57.712Z,20.77
2023-05-06T02:13:25.759Z,20.48
2023-05-06T02:15:54.861Z,20.27
2023-05-06T02:18:23.727Z,20.37
2023-05-06T02:20:51.522Z,20.34
2023-05-06T02:23:19.483Z,20.12
2023-05-06T02:25:47.876Z,20.34
2023-05-06T02:28:17.459Z,20.35
2023-05-06T02:30:45.465Z,20.36
2023-05-06T02:33:13.492Z,20.56
2023-05-06T02:35:41.513Z,20.35
2023-05-06T02:38:10.057Z,20.16
2023-05-06T02:40:38.036Z,20.19
2023-05-06T02:43:05.906Z,20.49
2023-05-06T02:45:36.595Z,20.58
2023-05-06T02:48:05.087Z,20.91
2023-05-06T02:50:33.041Z,20.91
2023-05-06T02:53:00.941Z,21.15
2023-05-06T02:55:28.696Z,21.08
2023-05-06T02:57:56.571Z,21.00
2023-05-06T03:00:24.652Z,21.32
2023-05-06T03:02:53.986Z,21.51
2023-05-06T03:05:22.191Z,21.23
2023-05-06T03:07:50.142Z,21.33
2023-05-06T03:10:18.288Z,20.91
2023-05-06T03:12:47.231Z,20.78
2023-05-06T03:15:16.371Z,20.54
2023-05-06T03:17:44.439Z,20.84
2023-05-06T03:20:13.920Z,20.38
2023-05-06T03:22:48.566Z,20.22
2023-05-06T03:25:16.520Z,20.50
2023-05-06T03:27:44.640Z,20.83
2023-05-06T03:30:19.013Z,20.90
2023-05-06T03:32:49.028Z,21.24
2023-05-06T03:35:24.730Z,20.98
2023-05-06T03:37:56.712Z,20.79
2023-05-06T03:40:27.714Z,21.14
2023-05-06T03:42:56.700Z,21.24
2023-05-06T03:45:25.677Z,21.14
2023-05-06T03:47:54.669Z,20.75
2023-05-06T03:50:26.270Z,21.00
2023-05-06T03:52:55.519Z,21.33
2023-05-06T03:55:26.064Z,21.15
2023-05-06T03:57:54.058Z,21.26
2023-05-06T04:00:23.162Z,20.76
2023-05-06T04:02:54.475Z,20.80
2023-05-06T04:05:30.713Z,20.66
2023-05-06T04:07:59.115Z,20.98
2023-05-06T04:10:27.120Z,20.79
2023-05-06T04:13:00.798Z,20.84
2023-05-06T04:15:35.291Z,20.80
2023-05-06T04:18:07.502Z,21.07
2023-05-06T04:20:39.025Z,21.13
2023-05-06T04:23:07.265Z,20.47
2023-05-06T04:25:35.783Z,19.87
2023-05-06T04:28:04.203Z,19.55
2023-05-06T04:30:32.590Z,19.76
2023-05-06T04:33:00.768Z,20.24
2023-05-06T04:35:29.170Z,20.53
2023-05-06T04:38:00.120Z,20.48
2023-05-06T04:40:31.317Z,20.32
2023-05-06T04:42:59.079Z,20.03
2023-05-06T04:45:29.800Z,20.62
2023-05-06T04:47:58.259Z,21.35
2023-05-06T04:50:28.231Z,20.66
2023-05-06T04:52:56.110Z,20.24
2023-05-06T04:55:25.616Z,19.90
2023-05-06T04:57:54.687Z,21.02
2023-05-06T05:00:22.884Z,20.80
2023-05-06T05:02:51.054Z,20.30
2023-05-06T05:05:20.919Z,20.06
2023-05-06T05:07:52.419Z,20.77
2023-05-06T05:10:20.748Z,20.23
2023-05-06T05:12:51.560Z,20.92
2023-05-06T05:15:21.298Z,20.44
2023-05-06T05:17:51.009Z,20.33
2023-05-06T05:20:20.183Z,20.49
2023-05-06T05:22:48.072Z,20.77
2023-05-06T05:25:15.957Z,20.86
2023-05-06T05:27:44.373Z,20.99
2023-05-06T05:30:13.986Z,21.10
2023-05-06T05:32:42.349Z,20.63
2023-05-06T05:35:16.124Z,18.87
2023-05-06T05:37:45.181Z,20.11
2023-05-06T05:40:14.322Z,19.82
2023-05-06T05:42:43.555Z,19.07
2023-05-06T05:45:22.525Z,20.48
2023-05-06T05:47:51.598Z,20.66
2023-05-06T05:50:19.755Z,20.81
2023-05-06T05:52:47.573Z,21.12
2023-05-06T05:55:16.211Z,20.62
2023-05-06T05:57:46.328Z,21.46
2023-05-06T06:00:15.196Z,21.29
2023-05-06T06:02:47.314Z,21.22
2023-05-06T06:05:20.018Z,22.03
2023-05-06T06:07:48.162Z,21.99
2023-05-06T06:10:16.257Z,22.43
2023-05-06T06:12:45.602Z,20.82
2023-05-06T06:15:18.721Z,21.03
2023-05-06T06:17:49.069Z,20.87
2023-05-06T06:20:17.158Z,21.59
2023-05-06T06:22:45.104Z,22.27
2023-05-06T06:25:12.981Z,22.14
2023-05-06T06:27:41.820Z,22.38
2023-05-06T06:30:10.624Z,21.89
2023-05-06T06:32:48.567Z,21.28
2023-05-06T06:35:19.076Z,21.15
2023-05-06T06:37:46.951Z,22.10
2023-05-06T06:40:15.187Z,22.18
2023-05-06T06:42:43.003Z,22.53
2023-05-06T06:45:40.295Z,22.51
2023-05-06T06:48:08.242Z,23.16
2023-05-06T06:50:37.458Z,22.24
2023-05-06T06:53:06.355Z,22.81
2023-05-06T06:55:34.686Z,22.42
2023-05-06T06:58:03.634Z,23.21
2023-05-06T07:00:31.389Z,23.30
2023-05-06T07:02:59.162Z,23.16
2023-05-06T07:05:27.493Z,24.00
2023-05-06T07:07:56.803Z,23.46
2023-05-06T07:10:24.619Z,22.06
2023-05-06T07:12:52.465Z,23.88
2023-05-06T07:15:20.482Z,23.32
2023-05-06T07:17:48.571Z,23.44
2023-05-06T07:20:17.059Z,23.00
2023-05-06T07:22:45.723Z,22.58
2023-05-06T07:25:15.074Z,23.23
2023-05-06T07:27:42.855Z,23.57
2023-05-06T07:30:11.448Z,22.77
2023-05-06T07:32:41.007Z,21.41
2023-05-06T07:35:10.355Z,20.31
2023-05-06T07:37:38.388Z,20.64
2023-05-06T07:40:07.624Z,21.38
2023-05-06T07:42:36.887Z,21.94
2023-05-06T07:45:05.400Z,21.32
2023-05-06T07:47:33.511Z,22.23
2023-05-06T07:50:01.332Z,21.50
2023-05-06T07:52:29.302Z,22.93
2023-05-06T07:54:57.014Z,22.23
2023-05-06T07:57:24.840Z,22.58
2023-05-06T07:59:54.298Z,23.00
2023-05-06T08:02:22.317Z,22.87
2023-05-06T08:04:51.775Z,21.99
2023-05-06T08:07:20.440Z,22.26
2023-05-06T08:09:48.293Z,21.87
2023-05-06T08:12:17.472Z,21.78
2023-05-06T08:14:45.533Z,23.61
2023-05-06T08:17:15.333Z,23.72
2023-05-06T08:19:43.103Z,23.44
2023-05-06T08:22:10.893Z,23.17
2023-05-06T08:24:38.980Z,23.19
2023-05-06T08:27:07.140Z,22.46
2023-05-06T08:29:34.999Z,22.83
2023-05-06T08:32:02.996Z,23.15
2023-05-06T08:34:32.647Z,23.70
2023-05-06T08:37:00.526Z,24.38
2023-05-06T08:39:28.892Z,24.51
2023-05-06T08:41:59.536Z,24.28
2023-05-06T08:44:27.833Z,24.46
2023-05-06T08:46:56.675Z,23.78
2023-05-06T08:49:24.997Z,24.55
2023-05-06T08:51:54.354Z,24.47
2023-05-06T08:54:26.165Z,24.97
2023-05-06T08:56:57.844Z,24.95
2023-05-06T08:59:27.006Z,23.44
2023-05-06T09:01:54.945Z,22.21
2023-05-06T09:04:23.142Z,23.89
2023-05-06T09:06:52.151Z,24.77
2023-05-06T09:09:21.594Z,22.76
2023-05-06T09:11:53.916Z,24.86
2023-05-06T09:14:23.042Z,25.88
2023-05-06T09:16:52.888Z,25.92
2023-05-06T09:19:22.563Z,26.18
2023-05-06T09:21:52.376Z,25.36
2023-05-06T09:24:22.044Z,25.41
2023-05-06T09:26:50.398Z,23.85
2023-05-06T09:29:18.281Z,24.47
2023-05-06T09:31:47.715Z,24.41
2023-05-06T09:34:17.410Z,23.69
2023-05-06T09:36:45.406Z,23.88
2023-05-06T09:39:13.214Z,22.77
2023-05-06T09:41:43.546Z,24.01
2023-05-06T09:44:12.804Z,23.01
2023-05-06T09:46:41.243Z,23.70
2023-05-06T09:49:10.194Z,23.46
2023-05-06T09:51:38.739Z,22.87
2023-05-06T09:54:07.357Z,24.87
2023-05-06T09:56:35.565Z,25.18
2023-05-06T09:59:06.899Z,22.64
2023-05-06T10:01:37.606Z,22.47
2023-05-06T10:04:09.848Z,23.34
2023-05-06T10:06:41.281Z,22.94
2023-05-06T10:09:09.933Z,24.37
2023-05-06T10:11:37.916Z,24.32
2023-05-06T10:14:08.060Z,26.40
2023-05-06T10:16:37.470Z,26.52
2023-05-06T10:19:09.410Z,26.77
2023-05-06T10:21:40.625Z,26.59
2023-05-06T10:24:12.747Z,27.41
2023-05-06T10:26:43.520Z,27.57
2023-05-06T10:29:12.695Z,27.23
2023-05-06T10:31:47.592Z,26.58
2023-05-06T10:34:19.405Z,25.90
2023-05-06T10:36:49.703Z,25.38
2023-05-06T10:39:18.254Z,24.77
2023-05-06T10:41:46.101Z,23.45
2023-05-06T10:44:15.477Z,24.91
2023-05-06T10:46:59.659Z,25.63
2023-05-06T10:49:29.106Z,26.64
2023-05-06T10:52:14.461Z,26.36
2023-05-06T10:54:50.320Z,26.88
2023-05-06T10:57:20.671Z,23.88
2023-05-06T10:59:49.995Z,23.77
2023-05-06T11:02:20.839Z,24.66
2023-05-06T11:04:53.538Z,24.86
2023-05-06T11:07:25.087Z,24.09
2023-05-06T11:09:57.236Z,24.17
2023-05-06T11:12:46.542Z,24.75
2023-05-06T11:15:25.705Z,24.90
2023-05-06T11:17:55.458Z,25.19
2023-05-06T11:20:25.359Z,25.94
2023-05-06T11:22:56.254Z,24.66
2023-05-06T11:25:43.287Z,26.34
2023-05-06T11:28:11.937Z,27.73
2023-05-06T11:30:43.583Z,28.74
2023-05-06T11:33:19.871Z,28.33
2023-05-06T11:35:47.770Z,28.10
2023-05-06T11:38:15.677Z,26.36
2023-05-06T11:40:43.570Z,27.13
2023-05-06T11:43:12.539Z,24.61
2023-05-06T11:45:46.458Z,25.53
2023-05-06T11:48:15.084Z,26.42
2023-05-06T11:50:47.257Z,27.12
2023-05-06T11:53:16.711Z,26.03
2023-05-06T11:55:45.387Z,25.90
2023-05-06T11:58:17.198Z,26.57
2023-05-06T12:00:51.980Z,27.13
2023-05-06T12:03:20.465Z,26.53
2023-05-06T12:05:49.307Z,25.38
2023-05-06T12:08:26.561Z,25.51
2023-05-06T12:10:58.805Z,24.28
2023-05-06T12:13:28.102Z,24.28
2023-05-06T12:16:00.543Z,24.69
2023-05-06T12:18:28.929Z,24.38
2023-05-06T12:20:57.193Z,25.49
2023-05-06T12:23:24.997Z,24.93
2023-05-06T12:26:02.866Z,22.98
2023-05-06T12:28:32.844Z,23.84
2023-05-06T12:31:02.289Z,23.74
2023-05-06T12:33:45.438Z,24.02
2023-05-06T12:36:13.398Z,23.22
2023-05-06T12:38:51.624Z,23.83
2023-05-06T12:41:20.130Z,23.17
2023-05-06T12:43:47.975Z,23.50
2023-05-06T12:46:18.396Z,24.91
2023-05-06T12:48:58.116Z,23.91
2023-05-06T12:51:26.671Z,25.64
2023-05-06T12:53:54.459Z,25.56
2023-05-06T12:56:22.729Z,23.99
2023-05-06T12:58:58.131Z,24.92
2023-05-06T13:01:27.370Z,24.36
2023-05-06T13:03:56.439Z,24.69
2023-05-06T13:06:24.200Z,25.54
2023-05-06T13:08:52.019Z,26.92
2023-05-06T13:11:21.440Z,25.62
2023-05-06T13:13:49.165Z,25.34
2023-05-06T13:16:17.041Z,26.22
2023-05-06T13:18:46.257Z,24.69
2023-05-06T13:21:14.139Z,24.10
2023-05-06T13:23:46.874Z,24.31
2023-05-06T13:26:14.729Z,25.53
2023-05-06T13:28:42.551Z,25.41
2023-05-06T13:31:10.447Z,26.34
2023-05-06T13:33:38.510Z,24.68
2023-05-06T13:36:08.216Z,24.31
2023-05-06T13:38:35.944Z,24.25
2023-05-06T13:41:03.661Z,24.69
2023-05-06T13:43:31.381Z,25.35
2023-05-06T13:45:59.160Z,26.74
2023-05-06T13:48:26.955Z,26.20
2023-05-06T13:50:54.662Z,26.95
2023-05-06T13:53:23.756Z,26.73
2023-05-06T13:55:51.477Z,27.39
2023-05-06T13:58:19.361Z,26.13
2023-05-06T14:00:47.227Z,25.15
2023-05-06T14:03:14.944Z,26.14
2023-05-06T14:05:42.704Z,26.94
2023-05-06T14:08:10.454Z,26.59
2023-05-06T14:10:39.526Z,26.83
2023-05-06T14:13:07.437Z,25.88
2023-05-06T14:15:35.345Z,26.49
2023-05-06T14:18:03.087Z,25.96
2023-05-06T14:20:30.923Z,26.15
2023-05-06T14:22:58.630Z,26.88
2023-05-06T14:25:27.842Z,25.63
2023-05-06T14:27:57.202Z,25.76
2023-05-06T14:30:25.889Z,26.07
2023-05-06T14:32:53.693Z,25.76
2023-05-06T14:35:21.826Z,25.81
2023-05-06T14:37:49.660Z,26.78
2023-05-06T14:40:17.800Z,27.19
2023-05-06T14:42:45.834Z,27.26
2023-05-06T14:45:15.876Z,28.39
2023-05-06T14:47:44.015Z,27.31
2023-05-06T14:50:12.805Z,27.12
2023-05-06T14:52:42.130Z,27.76
2023-05-06T14:55:11.647Z,28.95
2023-05-06T14:57:39.587Z,28.21
2023-05-06T15:00:10.177Z,27.24
2023-05-06T15:02:40.720Z,29.24
2023-05-06T15:05:10.399Z,30.59
2023-05-06T15:07:38.561Z,30.84
2023-05-06T15:10:07.031Z,29.95
2023-05-06T15:12:37.383Z,28.57
2023-05-06T15:15:06.435Z,28.64
2023-05-06T15:17:34.245Z,29.55
2023-05-06T15:20:04.235Z,29.51
2023-05-06T15:22:32.108Z,30.22
2023-05-06T15:24:59.941Z,30.58
2023-05-06T15:27:27.821Z,29.52
2023-05-06T15:29:55.633Z,28.00
2023-05-06T15:32:23.419Z,29.69
2023-05-06T15:34:51.218Z,29.60
2023-05-06T15:37:22.061Z,28.06
2023-05-06T15:39:49.787Z,28.08
2023-05-06T15:42:17.908Z,29.44
2023-05-06T15:44:45.867Z,30.91
2023-05-06T15:47:13.626Z,30.77
2023-05-06T15:52:12.322Z,29.42
2023-05-06T15:54:41.514Z,28.83
2023-05-06T15:57:09.688Z,29.71
2023-05-06T15:59:37.542Z,30.60
2023-05-06T16:04:36.262Z,30.36
2023-05-06T16:07:04.044Z,30.78
2023-05-06T16:09:31.760Z,30.16
2023-05-06T16:12:01.263Z,29.47
2023-05-06T16:14:29.000Z,28.44
2023-05-06T16:16:56.784Z,28.64
2023-05-06T16:19:24.621Z,28.16
2023-05-06T16:21:52.941Z,28.24
2023-05-06T16:24:20.685Z,27.43
2023-05-06T16:26:48.494Z,27.34
2023-05-06T16:29:20.363Z,27.56
2023-05-06T16:31:48.415Z,28.41
2023-05-06T16:34:16.585Z,28.82
2023-05-06T16:36:44.610Z,28.73
2023-05-06T16:39:12.451Z,29.13
2023-05-06T16:41:40.320Z,29.36
2023-05-06T16:44:08.178Z,29.01
2023-05-06T16:46:37.381Z,28.98
2023-05-06T16:49:05.226Z,28.06
2023-05-06T16:51:33.097Z,28.12
2023-05-06T16:54:01.236Z,27.52
2023-05-06T16:56:43.863Z,26.73
2023-05-06T16:59:16.118Z,26.07
2023-05-06T17:01:45.288Z,25.76
2023-05-06T17:04:12.997Z,25.51
2023-05-06T17:06:40.815Z,24.23
2023-05-06T17:09:08.528Z,24.31
2023-05-06T17:11:36.418Z,24.31
2023-05-06T17:14:04.154Z,24.07
2023-05-06T17:16:32.169Z,24.15
2023-05-06T17:19:01.314Z,24.49
2023-05-06T17:21:29.059Z,23.52
2023-05-06T17:23:56.882Z,23.87
2023-05-06T17:26:24.703Z,23.48
2023-05-06T17:28:52.476Z,23.09
2023-05-06T17:31:20.353Z,23.90
2023-05-06T17:33:48.321Z,23.61
2023-05-06T17:36:20.588Z,22.52
2023-05-06T17:38:48.513Z,22.39
2023-05-06T17:41:16.312Z,22.36
2023-05-06T17:43:47.305Z,22.43
2023-05-06T17:46:16.003Z,22.27
2023-05-06T17:48:45.217Z,21.75
2023-05-06T17:51:12.982Z,21.49
2023-05-06T17:53:42.172Z,21.21
2023-05-06T17:56:09.964Z,21.15
2023-05-06T17:58:37.724Z,22.13
2023-05-06T18:01:07.115Z,21.84
2023-05-06T18:03:35.029Z,22.55
2023-05-06T18:06:03.329Z,22.49
2023-05-06T18:08:31.104Z,21.34
2023-05-06T18:11:00.335Z,21.10
2023-05-06T18:13:28.325Z,20.83
2023-05-06T18:15:56.123Z,20.49
2023-05-06T18:18:23.898Z,21.02
2023-05-06T18:20:51.660Z,21.42
2023-05-06T18:23:19.533Z,21.45
2023-05-06T18:25:47.373Z,21.08
2023-05-06T18:28:16.853Z,20.61
2023-05-06T18:30:44.827Z,20.69
2023-05-06T18:33:12.704Z,20.78
2023-05-06T18:35:40.527Z,21.35
2023-05-06T18:38:08.885Z,21.41
2023-05-06T18:40:36.765Z,21.42
2023-05-06T18:43:04.774Z,21.21
2023-05-06T18:45:34.052Z,20.75
2023-05-06T18:48:01.847Z,20.07
2023-05-06T18:50:29.624Z,19.58
2023-05-06T18:52:57.514Z,19.62
2023-05-06T18:55:25.670Z,18.70
2023-05-06T18:57:53.559Z,19.25
2023-05-06T19:00:22.387Z,20.05
2023-05-06T19:02:51.596Z,19.71
2023-05-06T19:05:20.588Z,20.26
2023-05-06T19:07:48.324Z,19.79
2023-05-06T19:10:16.366Z,19.26
2023-05-06T19:12:45.353Z,19.79
2023-05-06T19:15:14.027Z,20.10
2023-05-06T19:17:41.930Z,19.67
2023-05-06T19:20:14.277Z,19.88
2023-05-06T19:22:42.112Z,19.83
2023-05-06T19:25:11.140Z,20.26
2023-05-06T19:27:39.191Z,19.97
2023-05-06T19:30:08.407Z,19.56
2023-05-06T19:32:36.227Z,19.47
2023-05-06T19:35:07.916Z,19.79
2023-05-06T19:37:38.353Z,19.77
2023-05-06T19:40:08.007Z,18.85
2023-05-06T19:42:35.872Z,18.72
2023-05-06T19:45:07.940Z,19.27
2023-05-06T19:47:36.059Z,19.02
2023-05-06T19:50:04.253Z,18.88
2023-05-06T19:52:34.343Z,18.15
2023-05-06T19:55:03.657Z,18.46
2023-05-06T19:57:33.538Z,19.04
2023-05-06T20:00:05.453Z,19.29
2023-05-06T20:02:33.597Z,18.09
2023-05-06T20:05:01.592Z,18.43
2023-05-06T20:07:29.338Z,18.28
2023-05-06T20:09:57.371Z,19.14
2023-05-06T20:12:27.384Z,18.15
2023-05-06T20:14:56.037Z,19.63
2023-05-06T20:17:24.875Z,19.74
2023-05-06T20:19:52.686Z,19.97
2023-05-06T20:22:20.651Z,19.33
2023-05-06T20:24:48.521Z,19.49
2023-05-06T20:27:16.389Z,19.55
2023-05-06T20:29:45.965Z,19.40
2023-05-06T20:32:13.840Z,19.47
2023-05-06T20:34:41.633Z,18.70
2023-05-06T20:37:09.540Z,19.16
2023-05-06T20:39:37.542Z,18.98
2023-05-06T20:42:05.428Z,19.33
2023-05-06T20:44:33.195Z,19.10
2023-05-06T20:47:02.401Z,18.87
2023-05-06T20:49:30.262Z,19.56
2023-05-06T20:51:58.334Z,19.30
2023-05-06T20:54:26.201Z,18.53
2023-05-06T20:56:53.967Z,19.21
2023-05-06T20:59:22.061Z,18.78
2023-05-06T21:01:50.083Z,18.60
2023-05-06T21:04:19.687Z,18.16
2023-05-06T21:06:47.666Z,18.30
2023-05-06T21:09:15.458Z,18.21
2023-05-06T21:11:43.162Z,18.49
2023-05-06T21:14:11.083Z,18.14
2023-05-06T21:16:40.549Z,18.40
2023-05-06T21:19:08.495Z,19.03
2023-05-06T21:21:38.033Z,19.27
2023-05-06T21:24:06.559Z,19.11
2023-05-06T21:26:34.414Z,19.09
2023-05-06T21:29:02.296Z,19.12
2023-05-06T21:31:30.350Z,18.29
2023-05-06T21:34:00.072Z,18.20
2023-05-06T21:36:28.082Z,18.30
2023-05-06T21:39:07.869Z,18.15
2023-05-06T21:41:36.352Z,18.35
2023-05-06T21:44:04.443Z,18.61
2023-05-06T21:46:32.514Z,17.82
2023-05-06T21:49:00.955Z,17.78
2023-05-06T21:51:29.870Z,18.37
2023-05-06T21:53:57.672Z,18.73
2023-05-06T21:56:26.858Z,18.21
2023-05-06T21:58:56.614Z,18.66
2023-05-06T22:01:26.011Z,18.90
2023-05-06T22:03:54.242Z,18.54
2023-05-06T22:06:22.195Z,18.14
2023-05-06T22:08:50.047Z,18.66
2023-05-06T22:11:18.250Z,18.47
2023-05-06T22:13:47.620Z,18.72
2023-05-06T22:16:15.691Z,18.84
2023-05-06T22:18:43.482Z,19.10
2023-05-06T22:21:11.440Z,18.58
2023-05-06T22:23:40.564Z,19.05
2023-05-06T22:26:08.488Z,18.48
2023-05-06T22:28:36.536Z,18.75
2023-05-06T22:31:06.006Z,18.92
2023-05-06T22:33:33.924Z,19.27
2023-05-06T22:36:01.739Z,19.16
2023-05-06T22:38:29.594Z,18.61
2023-05-06T22:40:57.458Z,18.30
2023-05-06T22:43:25.324Z,18.22
2023-05-06T22:45:53.383Z,18.59
2023-05-06T22:48:22.700Z,18.16
2023-05-06T22:50:50.631Z,18.65
2023-05-06T22:53:18.637Z,18.30
2023-05-06T22:55:46.462Z,18.83
2023-05-06T22:58:14.274Z,18.05
2023-05-06T23:00:43.241Z,18.96
2023-05-06T23:03:11.239Z,19.81
2023-05-06T23:05:40.533Z,18.81
2023-05-06T23:08:08.295Z,18.22
2023-05-06T23:10:36.152Z,18.25
2023-05-06T23:13:04.381Z,18.56
2023-05-06T23:15:32.353Z,18.80
2023-05-06T23:18:03.233Z,18.26
2023-05-06T23:20:31.092Z,18.09
2023-05-06T23:23:00.384Z,17.72
2023-05-06T23:25:28.346Z,18.02
2023-05-06T23:27:56.172Z,17.72
2023-05-06T23:30:23.927Z,17.83
2023-05-06T23:32:51.687Z,17.82
2023-05-06T23:35:19.755Z,18.40
2023-05-06T23:37:47.480Z,18.34
2023-05-06T23:40:16.825Z,18.25
2023-05-06T23:42:44.603Z,17.89
2023-05-06T23:45:12.717Z,18.31
2023-05-06T23:47:40.998Z,18.31
2023-05-06T23:50:09.802Z,18.00
2023-05-06T23:52:38.288Z,17.94
2023-05-06T23:55:07.465Z,18.69
2023-05-06T23:57:36.598Z,18.07
